createdAt,value
2018-10-03T00:01:35.604Z,10.40
2018-10-03T00:05:08.874Z,7.43
2018-10-03T00:08:42.112Z,7.30
2018-10-03T00:12:15.353Z,7.57
2018-10-03T00:15:48.600Z,7.40
2018-10-03T00:19:21.849Z,9.07
2018-10-03T00:22:55.105Z,7.10
2018-10-03T00:26:28.427Z,10.33
2018-10-03T00:30:01.710Z,7.20
2018-10-03T00:33:34.973Z,6.27
2018-10-03T00:37:09.142Z,7.47
2018-10-03T00:40:42.371Z,6.43
2018-10-03T00:44:15.596Z,6.40
2018-10-03T00:47:48.885Z,7.23
2018-10-03T00:51:22.139Z,10.13
2018-10-03T00:54:55.367Z,8.73
2018-10-03T00:58:30.589Z,6.13
2018-10-03T01:02:03.932Z,7.20
2018-10-03T01:05:37.153Z,12.47
2018-10-03T01:09:10.441Z,6.20
2018-10-03T01:12:43.949Z,7.20
2018-10-03T01:16:17.337Z,5.73
2018-10-03T01:19:50.544Z,6.80
2018-10-03T01:23:23.780Z,7.40
2018-10-03T01:26:57.028Z,6.73
2018-10-03T01:30:30.260Z,6.23
2018-10-03T01:34:03.508Z,5.63
2018-10-03T01:37:36.757Z,6.90
2018-10-03T01:41:09.980Z,6.30
2018-10-03T01:44:43.252Z,7.10
2018-10-03T01:48:16.488Z,8.27
2018-10-03T01:51:50.300Z,7.40
2018-10-03T01:55:23.549Z,8.13
2018-10-03T01:58:56.765Z,6.37
2018-10-03T02:02:30.003Z,6.63
2018-10-03T02:06:03.259Z,9.07
2018-10-03T02:09:36.504Z,10.37
2018-10-03T02:13:09.741Z,8.37
2018-10-03T02:16:42.976Z,8.37
2018-10-03T02:20:16.222Z,8.63
2018-10-03T02:23:49.479Z,7.73
2018-10-03T02:27:22.712Z,7.67
2018-10-03T02:30:55.960Z,8.80
2018-10-03T02:34:29.226Z,10.40
2018-10-03T02:38:02.491Z,7.90
2018-10-03T02:41:35.746Z,8.07
2018-10-03T02:45:08.976Z,10.30
2018-10-03T02:48:42.229Z,8.20
2018-10-03T02:52:15.477Z,13.63
2018-10-03T02:55:48.723Z,7.37
2018-10-03T02:59:21.952Z,7.57
2018-10-03T03:02:55.463Z,9.00
2018-10-03T03:06:28.712Z,6.80
2018-10-03T03:10:01.950Z,7.90
2018-10-03T03:13:35.204Z,10.13
2018-10-03T03:17:08.476Z,7.07
2018-10-03T03:20:41.713Z,7.33
2018-10-03T03:24:14.936Z,7.60
2018-10-03T03:27:48.189Z,8.57
2018-10-03T03:31:21.437Z,11.20
2018-10-03T03:34:54.671Z,9.57
2018-10-03T03:38:27.913Z,6.40
2018-10-03T03:42:01.161Z,7.30
2018-10-03T03:45:35.992Z,6.60
2018-10-03T03:49:09.220Z,7.27
2018-10-03T03:52:42.462Z,8.57
2018-10-03T03:56:15.709Z,7.10
2018-10-03T03:59:48.952Z,10.90
2018-10-03T04:03:22.209Z,7.30
2018-10-03T04:06:55.503Z,7.07
2018-10-03T04:10:28.793Z,7.67
2018-10-03T04:14:02.032Z,7.33
2018-10-03T04:17:35.264Z,8.07
2018-10-03T04:21:08.499Z,7.00
2018-10-03T04:24:41.747Z,7.30
2018-10-03T04:28:14.985Z,9.17
2018-10-03T04:31:48.220Z,9.63
2018-10-03T04:35:21.458Z,8.80
2018-10-03T04:38:54.815Z,10.27
2018-10-03T04:42:28.052Z,11.60
2018-10-03T04:46:01.308Z,8.40
2018-10-03T04:49:34.560Z,9.87
2018-10-03T04:53:07.830Z,9.30
2018-10-03T04:56:41.093Z,7.77
2018-10-03T05:00:14.352Z,8.03
2018-10-03T05:03:47.592Z,11.83
2018-10-03T05:07:20.832Z,8.30
2018-10-03T05:10:54.154Z,8.13
2018-10-03T05:14:27.397Z,8.80
2018-10-03T05:18:00.712Z,8.03
2018-10-03T05:21:33.984Z,8.40
2018-10-03T05:25:07.263Z,9.47
2018-10-03T05:28:40.528Z,9.50
2018-10-03T05:32:13.809Z,8.27
2018-10-03T05:35:47.144Z,9.67
2018-10-03T05:39:20.364Z,8.37
2018-10-03T05:42:53.621Z,8.10
2018-10-03T05:46:26.869Z,8.33
2018-10-03T05:50:00.310Z,7.73
2018-10-03T05:53:33.610Z,8.37
2018-10-03T05:57:06.860Z,7.57
2018-10-03T06:00:40.120Z,7.93
2018-10-03T06:04:13.357Z,7.83
2018-10-03T06:07:46.613Z,6.47
2018-10-03T06:11:19.979Z,6.33
2018-10-03T06:14:53.214Z,9.40
2018-10-03T06:18:27.505Z,6.60
2018-10-03T06:22:00.953Z,6.47
2018-10-03T06:25:34.265Z,6.63
2018-10-03T06:29:07.504Z,5.67
2018-10-03T06:32:40.745Z,6.27
2018-10-03T06:36:14.202Z,6.73
2018-10-03T06:39:47.500Z,7.47
2018-10-03T06:43:20.852Z,6.10
2018-10-03T06:46:54.165Z,9.57
2018-10-03T06:50:27.388Z,6.47
2018-10-03T06:54:00.733Z,7.90
2018-10-03T06:57:34.305Z,9.20
2018-10-03T07:01:07.540Z,7.77
2018-10-03T07:04:40.789Z,9.90
2018-10-03T07:08:14.059Z,11.20
2018-10-03T07:11:47.304Z,8.47
2018-10-03T07:15:20.536Z,10.03
2018-10-03T07:18:54.450Z,7.77
2018-10-03T07:22:27.749Z,7.97
2018-10-03T07:26:01.057Z,10.03
2018-10-03T07:29:34.376Z,9.60
2018-10-03T07:33:07.863Z,9.67
2018-10-03T07:36:41.168Z,9.70
2018-10-03T07:40:14.441Z,9.90
2018-10-03T07:43:47.842Z,9.60
2018-10-03T07:47:21.136Z,9.83
2018-10-03T07:50:54.497Z,8.03
2018-10-03T07:54:27.786Z,8.23
2018-10-03T07:58:01.093Z,8.67
2018-10-03T08:01:34.540Z,10.10
2018-10-03T08:05:07.828Z,9.93
2018-10-03T08:08:41.236Z,7.53
2018-10-03T08:12:14.517Z,8.27
2018-10-03T08:15:47.801Z,8.27
2018-10-03T08:19:21.148Z,9.60
2018-10-03T08:22:55.705Z,8.60
2018-10-03T08:26:29.046Z,8.00
2018-10-03T08:30:02.437Z,8.07
2018-10-03T08:33:35.724Z,7.70
2018-10-03T08:37:09.318Z,8.17
2018-10-03T08:40:42.696Z,8.60
2018-10-03T08:44:15.998Z,7.70
2018-10-03T08:47:49.275Z,6.90
2018-10-03T08:51:23.102Z,8.47
2018-10-03T08:54:56.400Z,6.63
2018-10-03T08:58:29.864Z,6.40
2018-10-03T09:02:03.004Z,7.23
2018-10-03T09:05:36.325Z,7.40
2018-10-03T09:09:10.345Z,6.23
2018-10-03T09:12:43.680Z,6.87
2018-10-03T09:16:17.178Z,7.50
2018-10-03T09:19:50.413Z,8.13
2018-10-03T09:23:23.683Z,7.80
2018-10-03T09:26:57.071Z,6.20
2018-10-03T09:30:30.563Z,8.03
2018-10-03T09:34:03.856Z,7.53
2018-10-03T09:37:37.093Z,8.10
2018-10-03T09:41:10.332Z,6.50
2018-10-03T09:44:43.591Z,6.40
2018-10-03T09:48:16.798Z,7.67
2018-10-03T09:51:50.029Z,7.70
2018-10-03T09:55:23.264Z,6.43
2018-10-03T09:58:56.482Z,6.40
2018-10-03T10:02:29.701Z,6.40
2018-10-03T10:06:02.935Z,7.20
2018-10-03T10:09:36.213Z,5.23
2018-10-03T10:13:09.447Z,5.57
2018-10-03T10:16:42.678Z,7.53
2018-10-03T10:20:16.145Z,6.23
2018-10-03T10:23:49.384Z,7.90
2018-10-03T10:27:22.608Z,6.40
2018-10-03T10:30:55.853Z,6.93
2018-10-03T10:34:29.089Z,5.03
2018-10-03T10:38:02.340Z,5.93
2018-10-03T10:41:35.698Z,7.37
2018-10-03T10:45:08.846Z,8.23
2018-10-03T10:48:42.090Z,7.17
2018-10-03T10:52:15.337Z,5.30
2018-10-03T10:55:48.577Z,5.80
2018-10-03T10:59:21.816Z,6.23
2018-10-03T11:02:55.118Z,8.90
2018-10-03T11:06:28.370Z,10.50
2018-10-03T11:10:01.643Z,7.80
2018-10-03T11:13:34.938Z,7.03
2018-10-03T11:17:08.250Z,7.97
2018-10-03T11:20:41.483Z,7.50
2018-10-03T11:24:14.935Z,7.10
2018-10-03T11:27:48.038Z,8.63
2018-10-03T11:31:21.876Z,8.53
2018-10-03T11:34:55.189Z,10.73
2018-10-03T11:38:28.451Z,6.33
2018-10-03T11:42:01.693Z,10.80
2018-10-03T11:45:34.960Z,8.17
2018-10-03T11:49:08.372Z,9.03
2018-10-03T11:52:41.629Z,8.80
2018-10-03T11:56:14.871Z,7.80
2018-10-03T11:59:48.111Z,19.27
2018-10-03T12:03:21.463Z,11.33
2018-10-03T12:06:54.710Z,6.20
2018-10-03T12:10:27.917Z,7.97
2018-10-03T12:14:01.159Z,7.00
2018-10-03T12:17:34.423Z,10.83
2018-10-03T12:21:07.676Z,6.87
2018-10-03T12:24:40.892Z,9.80
2018-10-03T12:28:14.133Z,10.67
2018-10-03T12:31:47.384Z,6.60
2018-10-03T12:35:26.056Z,7.83
2018-10-03T12:38:59.279Z,6.63
2018-10-03T12:42:32.623Z,10.30
2018-10-03T12:46:05.846Z,8.70
2018-10-03T12:49:39.076Z,11.00
2018-10-03T12:53:12.309Z,12.40
2018-10-03T12:56:45.556Z,10.07
2018-10-03T13:00:18.809Z,9.10
2018-10-03T13:03:52.049Z,10.77
2018-10-03T13:07:25.289Z,9.53
2018-10-03T13:10:58.540Z,10.97
2018-10-03T13:14:31.781Z,7.73
2018-10-03T13:18:05.060Z,8.43
2018-10-03T13:21:38.809Z,12.27
2018-10-03T13:25:12.055Z,8.03
2018-10-03T13:28:45.273Z,8.43
2018-10-03T13:32:18.511Z,9.67
2018-10-03T13:35:52.008Z,7.53
2018-10-03T13:39:25.240Z,5.17
2018-10-03T13:42:58.490Z,6.27
2018-10-03T13:46:31.776Z,7.13
2018-10-03T13:50:05.073Z,7.07
2018-10-03T13:53:38.300Z,8.77
2018-10-03T13:57:11.533Z,11.30
2018-10-03T14:00:44.802Z,7.60
2018-10-03T14:04:18.036Z,8.87
2018-10-03T14:07:51.391Z,9.70
2018-10-03T14:11:24.667Z,10.90
2018-10-03T14:14:57.926Z,7.60
2018-10-03T14:18:31.205Z,9.60
2018-10-03T14:22:04.439Z,9.13
2018-10-03T14:25:37.677Z,6.60
2018-10-03T14:29:10.920Z,9.30
2018-10-03T14:32:44.159Z,13.20
2018-10-03T14:36:17.402Z,9.40
2018-10-03T14:39:50.665Z,11.47
2018-10-03T14:43:23.908Z,16.67
2018-10-03T14:46:57.201Z,12.40
2018-10-03T14:50:30.433Z,11.77
2018-10-03T14:54:03.673Z,10.30
2018-10-03T14:57:36.924Z,9.17
2018-10-03T15:01:10.156Z,7.30
2018-10-03T15:04:43.448Z,9.40
2018-10-03T15:08:17.077Z,17.33
2018-10-03T15:11:50.308Z,9.10
2018-10-03T15:15:23.557Z,9.03
2018-10-03T15:18:56.775Z,10.60
2018-10-03T15:22:30.328Z,12.33
2018-10-03T15:26:03.552Z,11.20
2018-10-03T15:29:36.860Z,10.80
2018-10-03T15:33:10.089Z,14.70
2018-10-03T15:36:43.605Z,11.63
2018-10-03T15:40:16.853Z,14.00
2018-10-03T15:43:50.464Z,13.43
2018-10-03T15:47:23.704Z,12.33
2018-10-03T15:50:56.996Z,6.87
2018-10-03T15:54:30.232Z,12.60
2018-10-03T15:58:04.312Z,10.37
2018-10-03T16:01:37.573Z,12.83
2018-10-03T16:05:10.811Z,13.73
2018-10-03T16:08:44.068Z,9.83
2018-10-03T16:12:17.291Z,6.97
2018-10-03T16:15:50.667Z,8.77
2018-10-03T16:19:24.900Z,11.67
2018-10-03T16:22:58.153Z,11.23
2018-10-03T16:26:31.438Z,17.33
2018-10-03T16:30:04.777Z,11.23
2018-10-03T16:33:38.015Z,8.80
2018-10-03T16:37:11.283Z,7.57
2018-10-03T16:40:44.499Z,8.40
2018-10-03T16:44:17.747Z,9.87
2018-10-03T16:47:51.004Z,9.20
2018-10-03T16:51:24.252Z,13.60
2018-10-03T16:54:57.496Z,9.57
2018-10-03T16:58:30.725Z,12.10
2018-10-03T17:02:04.005Z,11.30
2018-10-03T17:05:38.145Z,8.30
2018-10-03T17:09:11.418Z,11.70
2018-10-03T17:12:44.638Z,8.80
2018-10-03T17:16:17.896Z,14.10
2018-10-03T17:19:51.131Z,7.43
2018-10-03T17:23:24.376Z,11.13
2018-10-03T17:26:58.258Z,11.73
2018-10-03T17:30:31.505Z,18.43
2018-10-03T17:34:04.858Z,14.33
2018-10-03T17:37:38.038Z,11.40
2018-10-03T17:41:11.290Z,11.90
2018-10-03T17:44:44.517Z,12.10
2018-10-03T17:48:17.882Z,13.33
2018-10-03T17:51:51.236Z,11.60
2018-10-03T17:55:24.597Z,11.10
2018-10-03T17:58:57.933Z,8.37
2018-10-03T18:02:31.682Z,10.23
2018-10-03T18:06:05.405Z,10.90
2018-10-03T18:09:38.657Z,11.97
2018-10-03T18:13:12.566Z,20.70
2018-10-03T18:16:45.993Z,14.43
2018-10-03T18:20:19.255Z,18.80
2018-10-03T18:23:52.505Z,13.20
2018-10-03T18:27:26.037Z,14.67
2018-10-03T18:30:59.296Z,16.93
2018-10-03T18:34:32.550Z,15.77
2018-10-03T18:38:05.814Z,15.17
2018-10-03T18:41:40.064Z,13.73
2018-10-03T18:45:13.515Z,13.70
2018-10-03T18:48:47.133Z,17.20
2018-10-03T18:52:20.440Z,17.37
2018-10-03T18:55:53.633Z,13.90
2018-10-03T18:59:26.884Z,13.80
2018-10-03T19:03:00.130Z,13.90
2018-10-03T19:06:37.935Z,14.23
2018-10-03T19:10:14.804Z,20.10
2018-10-03T19:13:48.058Z,18.77
2018-10-03T19:17:21.516Z,16.27
2018-10-03T19:20:55.191Z,15.63
2018-10-03T19:24:28.416Z,12.83
2018-10-03T19:28:01.672Z,17.90
2018-10-03T19:31:34.917Z,13.00
2018-10-03T19:35:08.229Z,15.30
2018-10-03T19:38:41.539Z,17.93
2018-10-03T19:42:15.381Z,23.37
2018-10-03T19:45:49.081Z,16.00
2018-10-03T19:49:22.359Z,15.93
2018-10-03T19:52:55.618Z,22.53
2018-10-03T19:56:28.933Z,18.53
2018-10-03T20:00:02.205Z,20.27
2018-10-03T20:03:35.473Z,19.67
2018-10-03T20:07:08.980Z,14.73
2018-10-03T20:10:43.002Z,13.10
2018-10-03T20:14:16.525Z,14.87
2018-10-03T20:17:49.977Z,15.10
2018-10-03T20:21:23.502Z,18.50
2018-10-03T20:24:56.848Z,17.53
2018-10-03T20:28:30.104Z,18.27
2018-10-03T20:32:04.227Z,15.33
2018-10-03T20:35:37.924Z,13.80
2018-10-03T20:39:11.220Z,17.47
2018-10-03T20:42:45.476Z,15.80
2018-10-03T20:46:18.750Z,13.13
2018-10-03T20:49:52.600Z,13.83
2018-10-03T20:53:25.888Z,13.13
2018-10-03T20:56:59.150Z,12.60
2018-10-03T21:00:32.397Z,14.93
2018-10-03T21:04:05.702Z,11.40
2018-10-03T21:07:38.952Z,11.80
2018-10-03T21:11:12.228Z,15.10
2018-10-03T21:14:45.690Z,11.83
2018-10-03T21:18:18.907Z,15.57
2018-10-03T21:21:52.147Z,11.63
2018-10-03T21:25:25.385Z,10.33
2018-10-03T21:28:58.630Z,16.70
2018-10-03T21:32:31.910Z,16.57
2018-10-03T21:36:05.124Z,15.07
2018-10-03T21:39:38.376Z,15.10
2018-10-03T21:43:11.622Z,12.67
2018-10-03T21:46:44.865Z,15.80
2018-10-03T21:50:18.096Z,13.80
2018-10-03T21:53:51.333Z,11.13
2018-10-03T21:57:24.560Z,11.17
2018-10-03T22:00:57.822Z,12.67
2018-10-03T22:04:31.051Z,8.30
2018-10-03T22:08:04.335Z,13.13
2018-10-03T22:11:37.573Z,16.17
2018-10-03T22:15:10.806Z,11.10
2018-10-03T22:18:44.036Z,15.40
2018-10-03T22:22:17.328Z,11.17
2018-10-03T22:25:50.584Z,15.63
2018-10-03T22:29:23.829Z,20.67
2018-10-03T22:32:57.070Z,17.80
2018-10-03T22:36:30.304Z,16.77
2018-10-03T22:40:03.576Z,24.23
2018-10-03T22:43:37.267Z,14.70
2018-10-03T22:47:10.512Z,16.20
2018-10-03T22:50:43.754Z,20.73
2018-10-03T22:54:17.049Z,21.50
2018-10-03T22:57:50.272Z,19.07
2018-10-03T23:01:23.507Z,15.30
2018-10-03T23:04:56.754Z,19.03
2018-10-03T23:08:30.005Z,22.20
2018-10-03T23:12:03.259Z,19.07
2018-10-03T23:15:36.498Z,17.03
2018-10-03T23:19:10.191Z,16.33
2018-10-03T23:22:43.472Z,19.70
2018-10-03T23:26:16.700Z,12.80
2018-10-03T23:29:49.932Z,20.43
2018-10-03T23:33:23.168Z,17.60
2018-10-03T23:36:56.400Z,17.50
2018-10-03T23:40:29.655Z,14.60
2018-10-03T23:44:02.880Z,16.17
2018-10-03T23:47:36.112Z,17.90
2018-10-03T23:51:09.357Z,17.23
2018-10-03T23:54:42.576Z,17.67
2018-10-03T23:58:15.809Z,15.10
